MDSD/SDQ METAR and TAF weather

Enter ICAO airport designator
Station Type Date Time Source
MDSD METAR 2020/07/02 17:00 UTC NOAA

MDSD 021700Z 12008KT 8000 -RA FEW018CB SCT020 31/24 Q1015 CB/NE/E/SE/S


Station Type Date Time Source
MDSD Decoded METAR 2020/07/02 17:00 UTC NOAA

Las Americas, Dominican Republic (MDSD) 18-26N 069-40W
Jul 02, 2020 - 01:00 PM EDT / 2020.07.02 1700 UTC
Wind: from the ESE (120 degrees) at 9 MPH (8 KT):0
Visibility: 4 mile(s):0
Sky conditions: partly cloudy
Weather: light rain; Cumulonimbus clouds observed
Temperature: 87 F (31 C)
Heat index: 95.7 F (35.4 C):1
Dew Point: 75 F (24 C)
Relative Humidity: 66%
Pressure (altimeter): 29.97 in. Hg (1015 hPa)
ob: MDSD 021700Z 12008KT 8000 -RA FEW018CB SCT020 31/24 Q1015 CB/NE/E/SE/S
cycle: 17

Station Type Date Time Source
MDSD TAF 2020/07/02 12:25 UTC NOAA

TAF MDSD 021000Z 0212/0312 06008KT 9999 SCT019
BECMG 0215/0217 13010KT PROB30 0218/0223 8000 -TSRA FEW016CB BKN017

Example: see airport list